This is the latest recevied weather packets stored in our database for station/object M0TJX-1. If no packets are shown the sender has not sent any weather packets the latest 1 day(s).
| Time | Temp. | Humidity | Pressure | Rain* | Wind** | Luminosity | Snow |
|---|---|---|---|---|---|---|---|
| 1777999395 | 15° C | 61% | 1013.3 hPa | 0 mm | 1.34 m/s, 44° | - | - |
| 1777998495 | 15.56° C | 62% | 1013.1 hPa | 0 mm | 1.79 m/s, 26° | - | - |
| 1777997595 | 16.11° C | 60% | 1013.1 hPa | 0 mm | 1.34 m/s, 11° | - | - |
| 1777996695 | 15.56° C | 61% | 1013 hPa | 0 mm | 0.89 m/s, 26° | - | - |
| 1777995795 | 15° C | 62% | 1013.1 hPa | 0 mm | 0.89 m/s, 29° | - | - |
| 1777994895 | 15° C | 59% | 1013.2 hPa | 0 mm | 1.79 m/s, 0° | - | - |
| 1777993995 | 15.56° C | 61% | 1013.3 hPa | 0 mm | 1.34 m/s, 18° | - | - |
| 1777993095 | 15.56° C | 60% | 1013.4 hPa | 0 mm | 1.34 m/s, 32° | - | - |
| 1777992195 | 15.56° C | 59% | 1013.5 hPa | 0 mm | 1.34 m/s, 9° | - | - |
| 1777991295 | 16.11° C | 59% | 1013.5 hPa | 0 mm | 1.34 m/s, 292° | - | - |
| 1777990395 | 16.67° C | 57% | 1013.5 hPa | 0 mm | 0.89 m/s, 5° | - | - |
| 1777989495 | 16.11° C | 58% | 1013.4 hPa | 0 mm | 0.89 m/s, 289° | - | - |
| 1777988595 | 16.67° C | 55% | 1013.5 hPa | 0 mm | 1.34 m/s, 63° | - | - |
| 1777987695 | 15.56° C | 59% | 1013.6 hPa | 0 mm | 1.34 m/s, 326° | - | - |
| 1777986795 | 16.11° C | 60% | 1013.6 hPa | 0 mm | 1.34 m/s, 348° | - | - |
| 1777985895 | 15.56° C | 62% | 1013.5 hPa | 0 mm | 0.89 m/s, 326° | - | - |
| 1777984995 | 15° C | 59% | 1013.5 hPa | 0 mm | 0.89 m/s, 59° | - | - |
| 1777984095 | 15.56° C | 60% | 1013.6 hPa | 0 mm | 1.34 m/s, 293° | - | - |
| 1777983195 | 15° C | 60% | 1013.6 hPa | 0 mm | 0.89 m/s, 15° | - | - |
| 1777982295 | 15.56° C | 59% | 1013.7 hPa | 0 mm | 1.34 m/s, 33° | - | - |
| 1777981395 | 15.56° C | 62% | 1013.6 hPa | 0 mm | 0.89 m/s, 24° | - | - |
| 1777980495 | 15.56° C | 64% | 1013.6 hPa | 0 mm | 1.34 m/s, 12° | - | - |
| 1777979595 | 15.56° C | 63% | 1013.9 hPa | 0 mm | 1.79 m/s, 11° | - | - |
| 1777978695 | 15° C | 65% | 1014.1 hPa | 0 mm | 1.79 m/s, 30° | - | - |
| 1777977795 | 15° C | 65% | 1014.2 hPa | 0 mm | 1.34 m/s, 281° | - | - |
* Rain latest hour (hover to see other rain measurements)
** Current wind speed in m/s (hover to see current wind gust speed)